sensor_id;sensor_type;location;lat;lon;timestamp;P1;durP1;ratioP1;P2;durP2;ratioP2
16531;SDS011;66872;63.142;14.482;2023-08-12T00:00:16;0.57;;;0.57;;
16531;SDS011;66872;63.142;14.482;2023-08-12T00:02:43;0.43;;;0.43;;
16531;SDS011;66872;63.142;14.482;2023-08-12T00:05:10;0.30;;;0.30;;
16531;SDS011;66872;63.142;14.482;2023-08-12T00:07:36;0.40;;;0.40;;
16531;SDS011;66872;63.142;14.482;2023-08-12T00:10:02;0.50;;;0.50;;
16531;SDS011;66872;63.142;14.482;2023-08-12T00:12:32;0.50;;;0.50;;
16531;SDS011;66872;63.142;14.482;2023-08-12T00:14:59;0.50;;;0.50;;
16531;SDS011;66872;63.142;14.482;2023-08-12T00:17:25;0.40;;;0.40;;
16531;SDS011;66872;63.142;14.482;2023-08-12T00:19:51;0.40;;;0.40;;
16531;SDS011;66872;63.142;14.482;2023-08-12T00:22:16;1.07;;;0.53;;
16531;SDS011;66872;63.142;14.482;2023-08-12T00:24:42;0.53;;;0.53;;
16531;SDS011;66872;63.142;14.482;2023-08-12T00:27:08;0.50;;;0.50;;
16531;SDS011;66872;63.142;14.482;2023-08-12T00:29:34;0.30;;;0.30;;
16531;SDS011;66872;63.142;14.482;2023-08-12T00:32:00;0.40;;;0.40;;
16531;SDS011;66872;63.142;14.482;2023-08-12T00:34:26;0.40;;;0.40;;
16531;SDS011;66872;63.142;14.482;2023-08-12T00:36:52;0.50;;;0.50;;
16531;SDS011;66872;63.142;14.482;2023-08-12T00:39:17;0.40;;;0.40;;
16531;SDS011;66872;63.142;14.482;2023-08-12T00:41:43;0.40;;;0.40;;
16531;SDS011;66872;63.142;14.482;2023-08-12T00:44:09;0.50;;;0.50;;
16531;SDS011;66872;63.142;14.482;2023-08-12T00:46:35;0.40;;;0.40;;
16531;SDS011;66872;63.142;14.482;2023-08-12T00:49:03;0.47;;;0.47;;
16531;SDS011;66872;63.142;14.482;2023-08-12T00:51:29;0.53;;;0.53;;
16531;SDS011;66872;63.142;14.482;2023-08-12T00:53:56;0.40;;;0.40;;
16531;SDS011;66872;63.142;14.482;2023-08-12T00:56:24;0.63;;;0.63;;
16531;SDS011;66872;63.142;14.482;2023-08-12T00:58:51;0.40;;;0.40;;
16531;SDS011;66872;63.142;14.482;2023-08-12T01:01:18;0.43;;;0.43;;
16531;SDS011;66872;63.142;14.482;2023-08-12T01:03:44;0.43;;;0.43;;
16531;SDS011;66872;63.142;14.482;2023-08-12T01:06:10;0.60;;;0.60;;
16531;SDS011;66872;63.142;14.482;2023-08-12T01:08:36;0.43;;;0.43;;
16531;SDS011;66872;63.142;14.482;2023-08-12T01:11:03;0.60;;;0.60;;
16531;SDS011;66872;63.142;14.482;2023-08-12T01:13:57;0.40;;;0.40;;
16531;SDS011;66872;63.142;14.482;2023-08-12T01:16:30;0.50;;;0.50;;
16531;SDS011;66872;63.142;14.482;2023-08-12T01:18:59;0.50;;;0.50;;
16531;SDS011;66872;63.142;14.482;2023-08-12T01:21:26;0.40;;;0.40;;
16531;SDS011;66872;63.142;14.482;2023-08-12T01:23:54;0.43;;;0.43;;
16531;SDS011;66872;63.142;14.482;2023-08-12T01:26:20;0.40;;;0.40;;
16531;SDS011;66872;63.142;14.482;2023-08-12T01:28:46;0.47;;;0.47;;
16531;SDS011;66872;63.142;14.482;2023-08-12T01:31:18;0.50;;;0.50;;
16531;SDS011;66872;63.142;14.482;2023-08-12T01:33:55;0.20;;;0.20;;
16531;SDS011;66872;63.142;14.482;2023-08-12T01:36:27;0.47;;;0.47;;
16531;SDS011;66872;63.142;14.482;2023-08-12T01:38:55;0.50;;;0.50;;
16531;SDS011;66872;63.142;14.482;2023-08-12T01:41:23;0.40;;;0.40;;
16531;SDS011;66872;63.142;14.482;2023-08-12T01:43:49;0.60;;;0.60;;
16531;SDS011;66872;63.142;14.482;2023-08-12T01:46:15;0.60;;;0.60;;
16531;SDS011;66872;63.142;14.482;2023-08-12T01:48:40;0.30;;;0.30;;
16531;SDS011;66872;63.142;14.482;2023-08-12T01:51:06;0.43;;;0.43;;
16531;SDS011;66872;63.142;14.482;2023-08-12T01:53:32;0.60;;;0.60;;
16531;SDS011;66872;63.142;14.482;2023-08-12T01:55:58;0.60;;;0.60;;
16531;SDS011;66872;63.142;14.482;2023-08-12T01:58:24;0.50;;;0.50;;
16531;SDS011;66872;63.142;14.482;2023-08-12T02:00:51;0.30;;;0.30;;
16531;SDS011;66872;63.142;14.482;2023-08-12T02:03:17;0.50;;;0.50;;
16531;SDS011;66872;63.142;14.482;2023-08-12T02:05:43;0.40;;;0.40;;
16531;SDS011;66872;63.142;14.482;2023-08-12T02:08:08;0.50;;;0.50;;
16531;SDS011;66872;63.142;14.482;2023-08-12T02:10:34;0.43;;;0.43;;
16531;SDS011;66872;63.142;14.482;2023-08-12T02:13:00;0.50;;;0.50;;
16531;SDS011;66872;63.142;14.482;2023-08-12T02:15:26;0.40;;;0.40;;
16531;SDS011;66872;63.142;14.482;2023-08-12T02:17:52;0.60;;;0.60;;
16531;SDS011;66872;63.142;14.482;2023-08-12T02:20:17;0.70;;;0.70;;
16531;SDS011;66872;63.142;14.482;2023-08-12T02:22:43;0.47;;;0.47;;
16531;SDS011;66872;63.142;14.482;2023-08-12T02:25:09;0.40;;;0.40;;
16531;SDS011;66872;63.142;14.482;2023-08-12T02:27:35;0.50;;;0.50;;
16531;SDS011;66872;63.142;14.482;2023-08-12T02:30:00;0.50;;;0.50;;
16531;SDS011;66872;63.142;14.482;2023-08-12T02:32:26;0.50;;;0.50;;
16531;SDS011;66872;63.142;14.482;2023-08-12T02:34:52;0.40;;;0.40;;
16531;SDS011;66872;63.142;14.482;2023-08-12T02:37:17;0.50;;;0.50;;
16531;SDS011;66872;63.142;14.482;2023-08-12T02:39:43;0.30;;;0.30;;
16531;SDS011;66872;63.142;14.482;2023-08-12T02:42:09;0.40;;;0.40;;
16531;SDS011;66872;63.142;14.482;2023-08-12T02:44:34;0.50;;;0.50;;
16531;SDS011;66872;63.142;14.482;2023-08-12T02:47:00;0.50;;;0.50;;
16531;SDS011;66872;63.142;14.482;2023-08-12T02:49:26;0.50;;;0.50;;
16531;SDS011;66872;63.142;14.482;2023-08-12T02:51:52;0.53;;;0.53;;
16531;SDS011;66872;63.142;14.482;2023-08-12T02:54:18;0.50;;;0.50;;
16531;SDS011;66872;63.142;14.482;2023-08-12T02:56:44;0.50;;;0.50;;
16531;SDS011;66872;63.142;14.482;2023-08-12T02:59:09;0.40;;;0.40;;
16531;SDS011;66872;63.142;14.482;2023-08-12T03:01:35;0.40;;;0.40;;
16531;SDS011;66872;63.142;14.482;2023-08-12T03:04:00;0.50;;;0.50;;
16531;SDS011;66872;63.142;14.482;2023-08-12T03:06:26;0.40;;;0.40;;
16531;SDS011;66872;63.142;14.482;2023-08-12T03:08:52;0.40;;;0.40;;
16531;SDS011;66872;63.142;14.482;2023-08-12T03:11:17;0.40;;;0.40;;
16531;SDS011;66872;63.142;14.482;2023-08-12T03:13:44;0.80;;;0.50;;
16531;SDS011;66872;63.142;14.482;2023-08-12T03:16:13;0.60;;;0.53;;
16531;SDS011;66872;63.142;14.482;2023-08-12T03:18:40;0.40;;;0.40;;
16531;SDS011;66872;63.142;14.482;2023-08-12T03:21:06;0.40;;;0.40;;
16531;SDS011;66872;63.142;14.482;2023-08-12T03:23:33;0.50;;;0.50;;
16531;SDS011;66872;63.142;14.482;2023-08-12T03:25:59;0.50;;;0.50;;
16531;SDS011;66872;63.142;14.482;2023-08-12T03:28:25;0.50;;;0.50;;
16531;SDS011;66872;63.142;14.482;2023-08-12T03:30:51;0.47;;;0.47;;
16531;SDS011;66872;63.142;14.482;2023-08-12T03:33:17;0.40;;;0.40;;
16531;SDS011;66872;63.142;14.482;2023-08-12T03:35:46;0.30;;;0.30;;
16531;SDS011;66872;63.142;14.482;2023-08-12T03:38:13;0.40;;;0.40;;
16531;SDS011;66872;63.142;14.482;2023-08-12T03:40:40;0.50;;;0.50;;
16531;SDS011;66872;63.142;14.482;2023-08-12T03:43:06;0.47;;;0.47;;
16531;SDS011;66872;63.142;14.482;2023-08-12T03:45:31;0.50;;;0.50;;
16531;SDS011;66872;63.142;14.482;2023-08-12T03:47:58;0.47;;;0.43;;
16531;SDS011;66872;63.142;14.482;2023-08-12T03:50:23;0.40;;;0.40;;
16531;SDS011;66872;63.142;14.482;2023-08-12T03:52:49;0.30;;;0.30;;
16531;SDS011;66872;63.142;14.482;2023-08-12T03:55:14;0.40;;;0.40;;
16531;SDS011;66872;63.142;14.482;2023-08-12T03:57:40;0.40;;;0.40;;
16531;SDS011;66872;63.142;14.482;2023-08-12T04:00:06;0.40;;;0.40;;
16531;SDS011;66872;63.142;14.482;2023-08-12T04:02:33;0.60;;;0.60;;
16531;SDS011;66872;63.142;14.482;2023-08-12T04:04:59;0.47;;;0.47;;
16531;SDS011;66872;63.142;14.482;2023-08-12T04:07:25;0.40;;;0.40;;
16531;SDS011;66872;63.142;14.482;2023-08-12T04:09:52;0.40;;;0.40;;
16531;SDS011;66872;63.142;14.482;2023-08-12T04:12:17;0.50;;;0.50;;
16531;SDS011;66872;63.142;14.482;2023-08-12T04:14:43;0.60;;;0.60;;
16531;SDS011;66872;63.142;14.482;2023-08-12T04:17:09;0.33;;;0.33;;
16531;SDS011;66872;63.142;14.482;2023-08-12T04:19:34;0.47;;;0.47;;
16531;SDS011;66872;63.142;14.482;2023-08-12T04:22:00;0.60;;;0.60;;
16531;SDS011;66872;63.142;14.482;2023-08-12T04:24:25;0.43;;;0.43;;
16531;SDS011;66872;63.142;14.482;2023-08-12T04:26:51;0.50;;;0.50;;
16531;SDS011;66872;63.142;14.482;2023-08-12T04:29:17;0.40;;;0.40;;
16531;SDS011;66872;63.142;14.482;2023-08-12T04:31:42;0.40;;;0.40;;
16531;SDS011;66872;63.142;14.482;2023-08-12T04:34:08;0.43;;;0.43;;
16531;SDS011;66872;63.142;14.482;2023-08-12T04:36:34;0.40;;;0.40;;
16531;SDS011;66872;63.142;14.482;2023-08-12T04:38:59;0.50;;;0.50;;
16531;SDS011;66872;63.142;14.482;2023-08-12T04:41:25;0.50;;;0.50;;
16531;SDS011;66872;63.142;14.482;2023-08-12T04:43:50;0.50;;;0.50;;
16531;SDS011;66872;63.142;14.482;2023-08-12T04:46:16;0.53;;;0.53;;
16531;SDS011;66872;63.142;14.482;2023-08-12T04:48:42;0.50;;;0.50;;
16531;SDS011;66872;63.142;14.482;2023-08-12T04:51:08;0.80;;;0.53;;
16531;SDS011;66872;63.142;14.482;2023-08-12T04:53:34;0.50;;;0.50;;
16531;SDS011;66872;63.142;14.482;2023-08-12T04:55:59;0.40;;;0.40;;
16531;SDS011;66872;63.142;14.482;2023-08-12T04:58:25;0.50;;;0.50;;
16531;SDS011;66872;63.142;14.482;2023-08-12T05:00:51;0.40;;;0.40;;
16531;SDS011;66872;63.142;14.482;2023-08-12T05:03:19;0.43;;;0.43;;
16531;SDS011;66872;63.142;14.482;2023-08-12T05:05:48;0.50;;;0.50;;
16531;SDS011;66872;63.142;14.482;2023-08-12T05:08:15;0.43;;;0.43;;
16531;SDS011;66872;63.142;14.482;2023-08-12T05:10:41;0.50;;;0.50;;
16531;SDS011;66872;63.142;14.482;2023-08-12T05:13:06;0.53;;;0.53;;
16531;SDS011;66872;63.142;14.482;2023-08-12T05:15:32;0.50;;;0.50;;
16531;SDS011;66872;63.142;14.482;2023-08-12T05:17:58;0.60;;;0.60;;
16531;SDS011;66872;63.142;14.482;2023-08-12T05:20:23;0.40;;;0.40;;
16531;SDS011;66872;63.142;14.482;2023-08-12T05:22:49;0.50;;;0.50;;
16531;SDS011;66872;63.142;14.482;2023-08-12T05:25:15;0.50;;;0.50;;
16531;SDS011;66872;63.142;14.482;2023-08-12T05:27:40;0.47;;;0.47;;
16531;SDS011;66872;63.142;14.482;2023-08-12T05:30:06;0.50;;;0.50;;
16531;SDS011;66872;63.142;14.482;2023-08-12T05:32:32;0.50;;;0.50;;
16531;SDS011;66872;63.142;14.482;2023-08-12T05:34:58;0.57;;;0.57;;
16531;SDS011;66872;63.142;14.482;2023-08-12T05:37:23;0.50;;;0.50;;
16531;SDS011;66872;63.142;14.482;2023-08-12T05:39:49;0.80;;;0.50;;
16531;SDS011;66872;63.142;14.482;2023-08-12T05:42:15;0.33;;;0.33;;
16531;SDS011;66872;63.142;14.482;2023-08-12T05:44:41;0.50;;;0.50;;
16531;SDS011;66872;63.142;14.482;2023-08-12T05:47:07;0.60;;;0.60;;
16531;SDS011;66872;63.142;14.482;2023-08-12T05:49:33;0.50;;;0.50;;
16531;SDS011;66872;63.142;14.482;2023-08-12T05:51:58;0.47;;;0.47;;
16531;SDS011;66872;63.142;14.482;2023-08-12T05:54:24;0.60;;;0.60;;
16531;SDS011;66872;63.142;14.482;2023-08-12T05:56:50;0.50;;;0.50;;
16531;SDS011;66872;63.142;14.482;2023-08-12T05:59:15;0.60;;;0.60;;
16531;SDS011;66872;63.142;14.482;2023-08-12T06:01:41;0.40;;;0.40;;
16531;SDS011;66872;63.142;14.482;2023-08-12T06:04:07;0.60;;;0.60;;
16531;SDS011;66872;63.142;14.482;2023-08-12T06:06:32;0.43;;;0.43;;
16531;SDS011;66872;63.142;14.482;2023-08-12T06:08:58;0.50;;;0.50;;
16531;SDS011;66872;63.142;14.482;2023-08-12T06:11:24;0.40;;;0.40;;
16531;SDS011;66872;63.142;14.482;2023-08-12T06:13:49;0.53;;;0.53;;
16531;SDS011;66872;63.142;14.482;2023-08-12T06:16:15;0.37;;;0.37;;
16531;SDS011;66872;63.142;14.482;2023-08-12T06:18:41;0.50;;;0.50;;
16531;SDS011;66872;63.142;14.482;2023-08-12T06:21:06;0.43;;;0.43;;
16531;SDS011;66872;63.142;14.482;2023-08-12T06:23:32;0.40;;;0.40;;
16531;SDS011;66872;63.142;14.482;2023-08-12T06:25:57;0.40;;;0.40;;
16531;SDS011;66872;63.142;14.482;2023-08-12T06:28:23;0.50;;;0.50;;
16531;SDS011;66872;63.142;14.482;2023-08-12T06:30:49;0.60;;;0.60;;
16531;SDS011;66872;63.142;14.482;2023-08-12T06:33:14;0.50;;;0.50;;
16531;SDS011;66872;63.142;14.482;2023-08-12T06:35:41;0.50;;;0.50;;
16531;SDS011;66872;63.142;14.482;2023-08-12T06:38:07;0.60;;;0.60;;
16531;SDS011;66872;63.142;14.482;2023-08-12T06:40:34;0.40;;;0.40;;
16531;SDS011;66872;63.142;14.482;2023-08-12T06:43:00;0.60;;;0.60;;
16531;SDS011;66872;63.142;14.482;2023-08-12T06:45:26;0.47;;;0.47;;
16531;SDS011;66872;63.142;14.482;2023-08-12T06:47:52;0.50;;;0.50;;
16531;SDS011;66872;63.142;14.482;2023-08-12T06:50:17;0.60;;;0.60;;
16531;SDS011;66872;63.142;14.482;2023-08-12T06:52:43;0.50;;;0.50;;
16531;SDS011;66872;63.142;14.482;2023-08-12T06:55:09;0.40;;;0.40;;
16531;SDS011;66872;63.142;14.482;2023-08-12T06:57:34;0.50;;;0.50;;
16531;SDS011;66872;63.142;14.482;2023-08-12T07:00:00;0.40;;;0.40;;
16531;SDS011;66872;63.142;14.482;2023-08-12T07:02:26;0.53;;;0.53;;
16531;SDS011;66872;63.142;14.482;2023-08-12T07:04:51;0.47;;;0.47;;
16531;SDS011;66872;63.142;14.482;2023-08-12T07:07:17;0.40;;;0.40;;
16531;SDS011;66872;63.142;14.482;2023-08-12T07:09:43;0.47;;;0.47;;
16531;SDS011;66872;63.142;14.482;2023-08-12T07:12:09;0.30;;;0.30;;
16531;SDS011;66872;63.142;14.482;2023-08-12T07:14:34;0.40;;;0.40;;
16531;SDS011;66872;63.142;14.482;2023-08-12T07:17:00;0.50;;;0.50;;
16531;SDS011;66872;63.142;14.482;2023-08-12T07:19:26;0.40;;;0.40;;
16531;SDS011;66872;63.142;14.482;2023-08-12T07:21:52;0.60;;;0.60;;
16531;SDS011;66872;63.142;14.482;2023-08-12T07:24:17;0.63;;;0.63;;
16531;SDS011;66872;63.142;14.482;2023-08-12T07:26:43;0.50;;;0.50;;
16531;SDS011;66872;63.142;14.482;2023-08-12T07:29:09;0.57;;;0.57;;
16531;SDS011;66872;63.142;14.482;2023-08-12T07:31:35;0.50;;;0.50;;
16531;SDS011;66872;63.142;14.482;2023-08-12T07:34:00;0.53;;;0.53;;
16531;SDS011;66872;63.142;14.482;2023-08-12T07:36:26;0.50;;;0.50;;
16531;SDS011;66872;63.142;14.482;2023-08-12T07:38:52;0.40;;;0.40;;
16531;SDS011;66872;63.142;14.482;2023-08-12T07:41:18;0.43;;;0.43;;
16531;SDS011;66872;63.142;14.482;2023-08-12T07:43:43;0.50;;;0.50;;
16531;SDS011;66872;63.142;14.482;2023-08-12T07:46:09;0.50;;;0.50;;
16531;SDS011;66872;63.142;14.482;2023-08-12T07:48:35;0.60;;;0.50;;
16531;SDS011;66872;63.142;14.482;2023-08-12T07:51:00;0.37;;;0.37;;
16531;SDS011;66872;63.142;14.482;2023-08-12T07:53:26;0.40;;;0.40;;
16531;SDS011;66872;63.142;14.482;2023-08-12T07:55:52;0.40;;;0.40;;
16531;SDS011;66872;63.142;14.482;2023-08-12T07:58:17;0.43;;;0.43;;
16531;SDS011;66872;63.142;14.482;2023-08-12T08:00:43;0.30;;;0.30;;
16531;SDS011;66872;63.142;14.482;2023-08-12T08:03:09;0.47;;;0.47;;
16531;SDS011;66872;63.142;14.482;2023-08-12T08:05:34;0.40;;;0.40;;
16531;SDS011;66872;63.142;14.482;2023-08-12T08:08:00;1.00;;;0.53;;
16531;SDS011;66872;63.142;14.482;2023-08-12T08:10:26;0.67;;;0.67;;
16531;SDS011;66872;63.142;14.482;2023-08-12T08:12:51;0.63;;;0.63;;
16531;SDS011;66872;63.142;14.482;2023-08-12T08:15:18;0.50;;;0.50;;
16531;SDS011;66872;63.142;14.482;2023-08-12T08:17:43;1.23;;;0.60;;
16531;SDS011;66872;63.142;14.482;2023-08-12T08:20:09;0.77;;;0.63;;
16531;SDS011;66872;63.142;14.482;2023-08-12T08:22:35;1.43;;;0.60;;
16531;SDS011;66872;63.142;14.482;2023-08-12T08:25:01;0.87;;;0.60;;
16531;SDS011;66872;63.142;14.482;2023-08-12T08:27:27;0.73;;;0.63;;
16531;SDS011;66872;63.142;14.482;2023-08-12T08:29:53;1.63;;;0.70;;
16531;SDS011;66872;63.142;14.482;2023-08-12T08:32:19;0.50;;;0.50;;
16531;SDS011;66872;63.142;14.482;2023-08-12T08:34:44;0.57;;;0.57;;
16531;SDS011;66872;63.142;14.482;2023-08-12T08:37:10;0.40;;;0.40;;
16531;SDS011;66872;63.142;14.482;2023-08-12T08:39:36;0.60;;;0.60;;
16531;SDS011;66872;63.142;14.482;2023-08-12T08:42:02;0.63;;;0.60;;
16531;SDS011;66872;63.142;14.482;2023-08-12T08:44:29;0.70;;;0.60;;
16531;SDS011;66872;63.142;14.482;2023-08-12T08:46:57;0.53;;;0.53;;
16531;SDS011;66872;63.142;14.482;2023-08-12T08:49:28;0.67;;;0.67;;
16531;SDS011;66872;63.142;14.482;2023-08-12T08:51:56;0.63;;;0.63;;
16531;SDS011;66872;63.142;14.482;2023-08-12T08:54:23;0.80;;;0.80;;
16531;SDS011;66872;63.142;14.482;2023-08-12T08:56:49;0.70;;;0.60;;
16531;SDS011;66872;63.142;14.482;2023-08-12T08:59:15;1.10;;;0.80;;
16531;SDS011;66872;63.142;14.482;2023-08-12T09:01:40;0.70;;;0.70;;
16531;SDS011;66872;63.142;14.482;2023-08-12T09:04:08;0.50;;;0.50;;
16531;SDS011;66872;63.142;14.482;2023-08-12T09:06:35;0.73;;;0.70;;
16531;SDS011;66872;63.142;14.482;2023-08-12T09:09:04;0.67;;;0.67;;
16531;SDS011;66872;63.142;14.482;2023-08-12T09:11:33;0.70;;;0.70;;
16531;SDS011;66872;63.142;14.482;2023-08-12T09:13:59;0.80;;;0.80;;
16531;SDS011;66872;63.142;14.482;2023-08-12T09:16:25;0.63;;;0.63;;
16531;SDS011;66872;63.142;14.482;2023-08-12T09:18:55;0.70;;;0.70;;
16531;SDS011;66872;63.142;14.482;2023-08-12T09:21:21;0.60;;;0.60;;
16531;SDS011;66872;63.142;14.482;2023-08-12T09:23:47;1.03;;;0.70;;
16531;SDS011;66872;63.142;14.482;2023-08-12T09:26:17;0.77;;;0.77;;
16531;SDS011;66872;63.142;14.482;2023-08-12T09:28:44;0.50;;;0.50;;
16531;SDS011;66872;63.142;14.482;2023-08-12T09:31:26;0.70;;;0.70;;
16531;SDS011;66872;63.142;14.482;2023-08-12T09:33:53;0.60;;;0.60;;
16531;SDS011;66872;63.142;14.482;2023-08-12T09:36:23;0.70;;;0.70;;
16531;SDS011;66872;63.142;14.482;2023-08-12T09:38:49;1.63;;;0.80;;
16531;SDS011;66872;63.142;14.482;2023-08-12T09:41:15;1.43;;;0.97;;
16531;SDS011;66872;63.142;14.482;2023-08-12T09:43:44;0.70;;;0.70;;
16531;SDS011;66872;63.142;14.482;2023-08-12T09:46:12;0.70;;;0.70;;
16531;SDS011;66872;63.142;14.482;2023-08-12T09:48:41;0.87;;;0.60;;
16531;SDS011;66872;63.142;14.482;2023-08-12T09:51:08;0.90;;;0.80;;
16531;SDS011;66872;63.142;14.482;2023-08-12T09:53:35;0.87;;;0.70;;
16531;SDS011;66872;63.142;14.482;2023-08-12T09:56:07;0.70;;;0.70;;
16531;SDS011;66872;63.142;14.482;2023-08-12T09:58:37;0.50;;;0.50;;
16531;SDS011;66872;63.142;14.482;2023-08-12T10:01:04;0.60;;;0.60;;
16531;SDS011;66872;63.142;14.482;2023-08-12T10:03:33;1.00;;;0.90;;
16531;SDS011;66872;63.142;14.482;2023-08-12T10:06:00;1.57;;;0.67;;
16531;SDS011;66872;63.142;14.482;2023-08-12T10:08:27;1.17;;;0.80;;
16531;SDS011;66872;63.142;14.482;2023-08-12T10:10:53;0.60;;;0.60;;
16531;SDS011;66872;63.142;14.482;2023-08-12T10:13:20;0.70;;;0.70;;
16531;SDS011;66872;63.142;14.482;2023-08-12T10:15:47;0.60;;;0.60;;
16531;SDS011;66872;63.142;14.482;2023-08-12T10:18:14;0.70;;;0.70;;
16531;SDS011;66872;63.142;14.482;2023-08-12T10:20:40;0.80;;;0.80;;
16531;SDS011;66872;63.142;14.482;2023-08-12T10:23:09;0.77;;;0.70;;
16531;SDS011;66872;63.142;14.482;2023-08-12T10:25:38;0.80;;;0.80;;
16531;SDS011;66872;63.142;14.482;2023-08-12T10:28:07;0.73;;;0.73;;
16531;SDS011;66872;63.142;14.482;2023-08-12T10:30:33;0.73;;;0.73;;
16531;SDS011;66872;63.142;14.482;2023-08-12T10:32:59;0.70;;;0.70;;
16531;SDS011;66872;63.142;14.482;2023-08-12T10:35:47;0.73;;;0.73;;
16531;SDS011;66872;63.142;14.482;2023-08-12T10:38:19;0.50;;;0.50;;
16531;SDS011;66872;63.142;14.482;2023-08-12T10:40:46;0.73;;;0.73;;
16531;SDS011;66872;63.142;14.482;2023-08-12T10:43:12;1.07;;;0.90;;
16531;SDS011;66872;63.142;14.482;2023-08-12T10:50:52;1.60;;;0.73;;
16531;SDS011;66872;63.142;14.482;2023-08-12T10:55:59;0.63;;;0.63;;
16531;SDS011;66872;63.142;14.482;2023-08-12T10:58:48;0.57;;;0.57;;
16531;SDS011;66872;63.142;14.482;2023-08-12T11:01:18;0.60;;;0.60;;
16531;SDS011;66872;63.142;14.482;2023-08-12T11:03:44;0.70;;;0.70;;
16531;SDS011;66872;63.142;14.482;2023-08-12T11:06:11;0.70;;;0.70;;
16531;SDS011;66872;63.142;14.482;2023-08-12T11:08:36;0.67;;;0.60;;
16531;SDS011;66872;63.142;14.482;2023-08-12T11:11:24;0.50;;;0.50;;
16531;SDS011;66872;63.142;14.482;2023-08-12T11:13:57;0.70;;;0.70;;
16531;SDS011;66872;63.142;14.482;2023-08-12T11:16:36;0.80;;;0.80;;
16531;SDS011;66872;63.142;14.482;2023-08-12T11:19:03;0.80;;;0.80;;
16531;SDS011;66872;63.142;14.482;2023-08-12T11:21:29;0.80;;;0.80;;
16531;SDS011;66872;63.142;14.482;2023-08-12T11:23:54;1.00;;;0.90;;
16531;SDS011;66872;63.142;14.482;2023-08-12T11:26:22;0.73;;;0.70;;
16531;SDS011;66872;63.142;14.482;2023-08-12T11:28:50;1.47;;;1.00;;
16531;SDS011;66872;63.142;14.482;2023-08-12T11:31:16;0.70;;;0.70;;
16531;SDS011;66872;63.142;14.482;2023-08-12T11:33:42;0.70;;;0.70;;
16531;SDS011;66872;63.142;14.482;2023-08-12T11:36:08;0.70;;;0.70;;
16531;SDS011;66872;63.142;14.482;2023-08-12T11:38:34;0.80;;;0.80;;
16531;SDS011;66872;63.142;14.482;2023-08-12T11:41:02;0.73;;;0.73;;
16531;SDS011;66872;63.142;14.482;2023-08-12T11:43:28;0.77;;;0.77;;
16531;SDS011;66872;63.142;14.482;2023-08-12T11:45:55;0.90;;;0.90;;
16531;SDS011;66872;63.142;14.482;2023-08-12T11:48:21;0.80;;;0.80;;
16531;SDS011;66872;63.142;14.482;2023-08-12T11:50:48;0.93;;;0.90;;
16531;SDS011;66872;63.142;14.482;2023-08-12T11:53:15;1.03;;;0.90;;
16531;SDS011;66872;63.142;14.482;2023-08-12T11:55:41;0.70;;;0.70;;
16531;SDS011;66872;63.142;14.482;2023-08-12T11:58:06;0.80;;;0.80;;
16531;SDS011;66872;63.142;14.482;2023-08-12T12:00:32;0.80;;;0.80;;
16531;SDS011;66872;63.142;14.482;2023-08-12T12:02:58;1.23;;;0.90;;
16531;SDS011;66872;63.142;14.482;2023-08-12T12:05:28;0.77;;;0.77;;
16531;SDS011;66872;63.142;14.482;2023-08-12T12:07:55;1.10;;;0.90;;
16531;SDS011;66872;63.142;14.482;2023-08-12T12:10:27;1.57;;;0.90;;
16531;SDS011;66872;63.142;14.482;2023-08-12T12:12:55;0.67;;;0.67;;
16531;SDS011;66872;63.142;14.482;2023-08-12T12:15:21;1.27;;;0.87;;
16531;SDS011;66872;63.142;14.482;2023-08-12T12:17:47;0.97;;;0.90;;
16531;SDS011;66872;63.142;14.482;2023-08-12T12:20:15;0.80;;;0.80;;
16531;SDS011;66872;63.142;14.482;2023-08-12T12:22:41;1.53;;;0.90;;
16531;SDS011;66872;63.142;14.482;2023-08-12T12:25:11;0.90;;;0.90;;
16531;SDS011;66872;63.142;14.482;2023-08-12T12:27:39;0.97;;;0.93;;
16531;SDS011;66872;63.142;14.482;2023-08-12T12:30:08;0.73;;;0.73;;
16531;SDS011;66872;63.142;14.482;2023-08-12T12:32:36;0.93;;;0.80;;
16531;SDS011;66872;63.142;14.482;2023-08-12T12:35:02;1.10;;;1.00;;
16531;SDS011;66872;63.142;14.482;2023-08-12T12:37:29;0.80;;;0.80;;
16531;SDS011;66872;63.142;14.482;2023-08-12T12:39:55;1.10;;;1.00;;
16531;SDS011;66872;63.142;14.482;2023-08-12T12:42:21;0.87;;;0.83;;
16531;SDS011;66872;63.142;14.482;2023-08-12T12:44:46;0.83;;;0.83;;
16531;SDS011;66872;63.142;14.482;2023-08-12T12:47:12;1.03;;;0.97;;
16531;SDS011;66872;63.142;14.482;2023-08-12T12:49:39;0.80;;;0.80;;
16531;SDS011;66872;63.142;14.482;2023-08-12T12:52:06;1.20;;;1.10;;
16531;SDS011;66872;63.142;14.482;2023-08-12T12:54:32;0.90;;;0.90;;
16531;SDS011;66872;63.142;14.482;2023-08-12T12:56:57;1.20;;;1.10;;
16531;SDS011;66872;63.142;14.482;2023-08-12T12:59:23;0.93;;;0.93;;
16531;SDS011;66872;63.142;14.482;2023-08-12T13:01:49;1.47;;;1.00;;
16531;SDS011;66872;63.142;14.482;2023-08-12T13:04:15;1.03;;;0.93;;
16531;SDS011;66872;63.142;14.482;2023-08-12T13:06:40;1.67;;;1.10;;
16531;SDS011;66872;63.142;14.482;2023-08-12T13:09:06;1.07;;;0.97;;
16531;SDS011;66872;63.142;14.482;2023-08-12T13:11:32;1.20;;;1.10;;
16531;SDS011;66872;63.142;14.482;2023-08-12T13:14:02;1.00;;;1.00;;
16531;SDS011;66872;63.142;14.482;2023-08-12T13:16:28;1.10;;;1.00;;
16531;SDS011;66872;63.142;14.482;2023-08-12T13:18:54;1.00;;;1.00;;
16531;SDS011;66872;63.142;14.482;2023-08-12T13:21:19;1.10;;;1.03;;
16531;SDS011;66872;63.142;14.482;2023-08-12T13:23:45;1.00;;;1.00;;
16531;SDS011;66872;63.142;14.482;2023-08-12T13:26:11;1.20;;;0.93;;
16531;SDS011;66872;63.142;14.482;2023-08-12T13:28:36;1.13;;;1.03;;
16531;SDS011;66872;63.142;14.482;2023-08-12T13:31:02;1.23;;;1.13;;
16531;SDS011;66872;63.142;14.482;2023-08-12T13:33:28;1.17;;;1.07;;
16531;SDS011;66872;63.142;14.482;2023-08-12T13:35:54;0.90;;;0.90;;
16531;SDS011;66872;63.142;14.482;2023-08-12T13:38:19;1.77;;;1.00;;
16531;SDS011;66872;63.142;14.482;2023-08-12T13:40:45;0.97;;;0.97;;
16531;SDS011;66872;63.142;14.482;2023-08-12T13:43:11;1.30;;;1.20;;
16531;SDS011;66872;63.142;14.482;2023-08-12T13:45:36;1.40;;;1.00;;
16531;SDS011;66872;63.142;14.482;2023-08-12T13:48:02;2.13;;;1.03;;
16531;SDS011;66872;63.142;14.482;2023-08-12T13:50:28;1.20;;;1.10;;
16531;SDS011;66872;63.142;14.482;2023-08-12T13:52:54;1.20;;;1.10;;
16531;SDS011;66872;63.142;14.482;2023-08-12T13:55:19;1.10;;;1.10;;
16531;SDS011;66872;63.142;14.482;2023-08-12T13:57:45;1.37;;;1.27;;
16531;SDS011;66872;63.142;14.482;2023-08-12T14:00:11;1.20;;;1.10;;
16531;SDS011;66872;63.142;14.482;2023-08-12T14:02:39;1.03;;;1.03;;
16531;SDS011;66872;63.142;14.482;2023-08-12T14:05:05;1.33;;;1.23;;
16531;SDS011;66872;63.142;14.482;2023-08-12T14:07:32;1.20;;;1.10;;
16531;SDS011;66872;63.142;14.482;2023-08-12T14:09:58;1.83;;;1.40;;
16531;SDS011;66872;63.142;14.482;2023-08-12T14:12:24;1.13;;;1.03;;
16531;SDS011;66872;63.142;14.482;2023-08-12T14:14:50;1.40;;;1.30;;
16531;SDS011;66872;63.142;14.482;2023-08-12T14:17:16;1.40;;;1.30;;
16531;SDS011;66872;63.142;14.482;2023-08-12T14:19:43;1.43;;;1.20;;
16531;SDS011;66872;63.142;14.482;2023-08-12T14:22:12;1.00;;;1.00;;
16531;SDS011;66872;63.142;14.482;2023-08-12T14:24:38;1.30;;;1.20;;
16531;SDS011;66872;63.142;14.482;2023-08-12T14:27:04;1.30;;;1.20;;
16531;SDS011;66872;63.142;14.482;2023-08-12T14:29:30;1.30;;;1.10;;
16531;SDS011;66872;63.142;14.482;2023-08-12T14:31:56;1.27;;;1.17;;
16531;SDS011;66872;63.142;14.482;2023-08-12T14:34:22;1.87;;;1.10;;
16531;SDS011;66872;63.142;14.482;2023-08-12T14:36:48;1.37;;;1.27;;